City of Colorado Springs Municipal Airport
KCOS : now visible

Airfield :











YOU CAN JOIN US ON...

 
LOGIN :

Register | Disclaimer

   EN    FR    IT 

 









Legend :    VFR   Marginal VFR   IFR   Intensive IFR   Very Intensive IFR
Visi :
Ceiling :
>= 8 km
>= 3000ft
5 to 8 km
1000 to 3000 ft
1500m to 5 km
500 to 1000 ft
800 to 1500m
200 to 500 ft
< 800m
< 200 ft
Symbols :   Thunderstorms  Fog  Heavy snow  Heavy precipitations  Wind > 20 kt






- Airport Elevation : 6187 ft
- IATA code : COS


KCOS - City of Colorado Springs Municipal

CURRENT METAR :
  • 021054Z 07004KT 10SM FEW150 14/09 A3020 RMK AO2 SLP161 T01440094

EXPIRED METARs :
  • 020954Z 04008KT 10SM FEW150 14/10 A3018 RMK AO2 SLP143 T01390100
  • 020854Z 02005KT 10SM FEW150 16/11 A3018 RMK AO2 SLP136 T01560106 58012
  • 012159Z 01028G37KT 10SM VCTS SCT060CB BKN090 BKN200 22/07 A3023 RMK AO2 PK WND 02037/2157 LTG DSNT ALQDS OCNL LTGICCG VC NW-NE TS VC NW-NE MOV SE VCSH W-NE T02220072

TAF KCOS
Valid from the 02 at 08:00 until the 03 at 06:00 UTC


020734Z 0208/0306 01010KT P6SM SCT150
FM021000 VRB05KT P6SM SCT150
FM021800 10010KT P6SM VCSH SCT090 BKN150
FM022100 13012KT P6SM -SHRA BKN090 BKN120
FM030000 16012KT P6SM VCSH SCT090 BKN120
FM030300 30008KT P6SM SCT120
KZDV FIR / North America



MET'MAP, your aeronautical weather chart ! - Copyright ORBIFLY December 2007 - Disclaimer

ORBIFLY MET'MAP TEAM :

Programming & Development : Alexandra Zaïnal
Original concept : Baudouin d'Aumeries
Technical & hardware support : Manuel Goepfert
Assistance : Marc-Olivier Méhu




SOURCES & CREDITS :

   NOAA       Earth
Advisory